PWSweather.com
Personal Weather Stations
Station Observations
PWSLORIS
The Farm At Fox Bay, Loris, SC 29569

The Farm At Fox BayLoris, SC 29569

Lat: 34.067097, Lon: -78.86907

Elevation: 108

Station Type: Davis Vantage Pro2 with 24 hr. FARS and solar

http://www.lorisweather.com

Latest ConditionsUpdated 11:45:01 AM EDT Monday, Jul 25, 2016
Currently Today's Max Today's Min Today's Average
Temperature 89.7°F32.1°C 89.7°F32.1°C 76.1°F24.5°C 80.1°F26.7°C
Dew Point 78.6°F25.9°C 79.2°F26.2°C 75.5°F24.2°C 77.3°F25.2°C
Winds Calm Calm 2.0 mph W3.2 kmh W - 0.2 mph 0.3 kmh
Wind Gusts 1.0 mph1.6 kmh 9.0 mph14.5 kmh - -
Humidity 70% 98% 70% 92%
Pressure 30.07 in1018.3 mb 30.08 in1018.6 mb 30.03 in1016.9 mb -
Hour Temp Dew Point Humidity Winds Wind Gusts Pressure Precip Precip Rate Daily Precip Total
11:45 AM 89.7°F32.1°C 78.6°F25.9°C 70% Calm Calm 1.0 mph1.6 kmh 30.07 in1018.3 mb - 0.00 in0.0 mm 0.00 in0.0 mm
11:30 AM 89.2°F31.8°C 78.1°F25.6°C 70% 0.5 mph WSW0.8 kmh WSW 2.0 mph3.2 kmh 30.07 in1018.3 mb - 0.00 in0.0 mm 0.00 in0.0 mm
11:15 AM 88.4°F31.3°C 77.4°F25.2°C 70% 0.9 mph NW1.4 kmh NW 5.0 mph8.0 kmh 30.07 in1018.3 mb - 0.00 in0.0 mm 0.00 in0.0 mm
11:00 AM 88.3°F31.3°C 79.0°F26.1°C 74% 0.1 mph SSE0.2 kmh SSE -- 30.07 in1018.3 mb - 0.00 in0.0 mm 0.00 in0.0 mm
10:45 AM 87.5°F30.8°C 78.2°F25.7°C 74% 0.3 mph S0.5 kmh S 1.0 mph1.6 kmh 30.07 in1018.3 mb - 0.00 in0.0 mm 0.00 in0.0 mm
10:30 AM 86.9°F30.5°C 77.6°F25.3°C 74% 1.5 mph S2.4 kmh S 4.0 mph6.4 kmh 30.07 in1018.3 mb - 0.00 in0.0 mm 0.00 in0.0 mm
10:15 AM 86.8°F30.4°C 77.9°F25.5°C 75% 2.0 mph W3.2 kmh W 5.0 mph8.0 kmh 30.07 in1018.3 mb - 0.00 in0.0 mm 0.00 in0.0 mm
10:00 AM 86.1°F30.1°C 79.2°F26.2°C 80% 0.9 mph NW1.4 kmh NW 9.0 mph14.5 kmh 30.08 in1018.6 mb - 0.00 in0.0 mm 0.00 in0.0 mm
09:45 AM 85.4°F29.7°C 78.6°F25.9°C 80% 0.5 mph SE0.8 kmh SE -- 30.08 in1018.6 mb - 0.00 in0.0 mm 0.00 in0.0 mm
09:30 AM 85.2°F29.6°C 78.7°F25.9°C 81% Calm Calm 1.0 mph1.6 kmh 30.08 in1018.6 mb - 0.00 in0.0 mm 0.00 in0.0 mm
09:15 AM 84.7°F29.3°C 79.0°F26.1°C 83% 1.6 mph NW2.6 kmh NW 5.0 mph8.0 kmh 30.08 in1018.6 mb - 0.00 in0.0 mm 0.00 in0.0 mm
09:00 AM 83.8°F28.8°C 79.1°F26.2°C 86% Calm Calm -- 30.08 in1018.6 mb - 0.00 in0.0 mm 0.00 in0.0 mm
08:45 AM 83.2°F28.4°C 78.9°F26.1°C 87% Calm Calm -- 30.07 in1018.3 mb - 0.00 in0.0 mm 0.00 in0.0 mm
08:30 AM 82.2°F27.9°C 78.6°F25.9°C 89% 0.1 mph NNW0.2 kmh NNW -- 30.07 in1018.3 mb - 0.00 in0.0 mm 0.00 in0.0 mm
08:15 AM 81.4°F27.4°C 78.5°F25.8°C 91% Calm Calm -- 30.07 in1018.3 mb - 0.00 in0.0 mm 0.00 in0.0 mm
08:00 AM 80.4°F26.9°C 78.9°F26.1°C 95% Calm Calm -- 30.07 in1018.3 mb - 0.00 in0.0 mm 0.00 in0.0 mm
07:45 AM 79.3°F26.3°C 78.4°F25.8°C 97% Calm Calm -- 30.07 in1018.3 mb - 0.00 in0.0 mm 0.00 in0.0 mm
07:30 AM 78.2°F25.7°C 77.6°F25.3°C 98% Calm Calm -- 30.06 in1017.9 mb - 0.00 in0.0 mm 0.00 in0.0 mm
07:15 AM 77.2°F25.1°C 76.6°F24.8°C 98% Calm Calm -- 30.06 in1017.9 mb - 0.00 in0.0 mm 0.00 in0.0 mm
07:00 AM 76.4°F24.7°C 75.7°F24.3°C 98% Calm Calm -- 30.07 in1018.3 mb - 0.00 in0.0 mm 0.00 in0.0 mm
06:45 AM 76.1°F24.5°C 75.5°F24.2°C 98% Calm Calm -- 30.06 in1017.9 mb - 0.00 in0.0 mm 0.00 in0.0 mm
06:30 AM 76.2°F24.6°C 75.6°F24.2°C 98% Calm Calm -- 30.06 in1017.9 mb - 0.00 in0.0 mm 0.00 in0.0 mm
06:15 AM 76.2°F24.6°C 75.6°F24.2°C 98% Calm Calm -- 30.06 in1017.9 mb - 0.00 in0.0 mm 0.00 in0.0 mm
06:00 AM 76.2°F24.6°C 75.6°F24.2°C 98% Calm Calm -- 30.05 in1017.6 mb - 0.00 in0.0 mm 0.00 in0.0 mm
05:45 AM 76.5°F24.7°C 75.9°F24.4°C 98% Calm Calm -- 30.05 in1017.6 mb - 0.00 in0.0 mm 0.00 in0.0 mm
05:30 AM 76.6°F24.8°C 76.0°F24.4°C 98% Calm Calm -- 30.05 in1017.6 mb - 0.00 in0.0 mm 0.00 in0.0 mm
05:15 AM 76.7°F24.8°C 76.1°F24.5°C 98% Calm Calm -- 30.04 in1017.3 mb - 0.00 in0.0 mm 0.00 in0.0 mm
05:00 AM 77.0°F25.0°C 76.4°F24.7°C 98% Calm Calm -- 30.03 in1016.9 mb - 0.00 in0.0 mm 0.00 in0.0 mm
04:45 AM 76.7°F24.8°C 76.1°F24.5°C 98% Calm Calm -- 30.03 in1016.9 mb - 0.00 in0.0 mm 0.00 in0.0 mm
04:30 AM 77.1°F25.1°C 76.5°F24.7°C 98% Calm Calm -- 30.03 in1016.9 mb - 0.00 in0.0 mm 0.00 in0.0 mm
04:15 AM 77.2°F25.1°C 76.6°F24.8°C 98% Calm Calm -- 30.03 in1016.9 mb - 0.00 in0.0 mm 0.00 in0.0 mm
04:00 AM 77.4°F25.2°C 76.8°F24.9°C 98% Calm Calm -- 30.03 in1016.9 mb - 0.00 in0.0 mm 0.00 in0.0 mm
03:45 AM 77.2°F25.1°C 76.6°F24.8°C 98% Calm Calm -- 30.03 in1016.9 mb - 0.00 in0.0 mm 0.00 in0.0 mm
03:30 AM 77.4°F25.2°C 76.8°F24.9°C 98% Calm Calm -- 30.03 in1016.9 mb - 0.00 in0.0 mm 0.00 in0.0 mm
03:15 AM 77.2°F25.1°C 76.6°F24.8°C 98% Calm Calm -- 30.03 in1016.9 mb - 0.00 in0.0 mm 0.00 in0.0 mm
03:00 AM 77.1°F25.1°C 76.5°F24.7°C 98% Calm Calm -- 30.04 in1017.3 mb - 0.00 in0.0 mm 0.00 in0.0 mm
02:45 AM 77.3°F25.2°C 76.7°F24.8°C 98% Calm Calm -- 30.04 in1017.3 mb - 0.00 in0.0 mm 0.00 in0.0 mm
02:30 AM 77.3°F25.2°C 76.7°F24.8°C 98% Calm Calm -- 30.04 in1017.3 mb - 0.00 in0.0 mm 0.00 in0.0 mm
02:15 AM 77.7°F25.4°C 77.1°F25.1°C 98% Calm Calm -- 30.04 in1017.3 mb - 0.00 in0.0 mm 0.00 in0.0 mm
02:00 AM 77.6°F25.3°C 76.7°F24.8°C 97% Calm Calm -- 30.04 in1017.3 mb - 0.00 in0.0 mm 0.00 in0.0 mm
01:45 AM 77.7°F25.4°C 76.8°F24.9°C 97% Calm Calm -- 30.04 in1017.3 mb - 0.00 in0.0 mm 0.00 in0.0 mm
01:30 AM 78.0°F25.6°C 77.1°F25.1°C 97% Calm Calm -- 30.04 in1017.3 mb - 0.00 in0.0 mm 0.00 in0.0 mm
01:15 AM 78.2°F25.7°C 77.3°F25.2°C 97% Calm Calm -- 30.04 in1017.3 mb - 0.00 in0.0 mm 0.00 in0.0 mm
01:00 AM 78.3°F25.7°C 77.4°F25.2°C 97% Calm Calm -- 30.04 in1017.3 mb - 0.00 in0.0 mm 0.00 in0.0 mm
12:45 AM 78.6°F25.9°C 77.4°F25.2°C 96% Calm Calm -- 30.04 in1017.3 mb - 0.00 in0.0 mm 0.00 in0.0 mm
12:30 AM 78.8°F26.0°C 77.6°F25.3°C 96% Calm Calm -- 30.05 in1017.6 mb - 0.00 in0.0 mm 0.00 in0.0 mm
12:15 AM 79.1°F26.2°C 77.9°F25.5°C 96% Calm Calm -- 30.05 in1017.6 mb - 0.00 in0.0 mm 0.00 in0.0 mm
12:00 AM 79.3°F26.3°C 78.1°F25.6°C 96% Calm Calm -- 30.05 in1017.6 mb - 0.00 in0.0 mm 0.00 in0.0 mm